Haile, Louisiana
Current Conditions -  °F | °C
As of 11:15 AM on Sunday 23 Nov 2014 (Local Time) from KBQP Reporting Station
Moderate Rain Moderate Rain  
Wind Chill: 61°   Ceiling: 600
Heat Index: 61°   Visibility: 2.5mi
Dew Point: 60°   Wind: 17mph
Humidity: 96%   Direction: 250°WSW
Pressure: 29.46"   Gusts: 35mph
Location:  32.906°N, 92.243°W
Report Text: KBQP 231715Z AUTO 25015G30KT 2 1/2SM RA BKN006 OVC010 16/16 A2946 RMK AO2 P0003 T01620156
Loading
Personal Weather Stations






























Interactive Weather Map New forecast layout! Learn more

10-Day Weather Forecast

Advertisements
Track Severe Weather on mobile